sensor_id;sensor_type;location;lat;lon;timestamp;pressure;altitude;pressure_sealevel;temperature;humidity
42847;BME280;28495;49.916;14.536;2023-03-03T00:01:18;97075.38;;;2.24;55.33
42847;BME280;28495;49.916;14.536;2023-03-03T00:06:39;97073.06;;;2.19;55.34
42847;BME280;28495;49.916;14.536;2023-03-03T00:12:00;97081.72;;;2.01;55.07
42847;BME280;28495;49.916;14.536;2023-03-03T00:17:29;97078.28;;;1.84;55.45
42847;BME280;28495;49.916;14.536;2023-03-03T00:22:52;97083.91;;;1.75;55.29
42847;BME280;28495;49.916;14.536;2023-03-03T00:28:46;97085.28;;;1.64;55.60
42847;BME280;28495;49.916;14.536;2023-03-03T00:34:26;97085.97;;;1.68;55.69
42847;BME280;28495;49.916;14.536;2023-03-03T00:39:47;97091.75;;;1.72;55.62
42847;BME280;28495;49.916;14.536;2023-03-03T00:45:25;97078.84;;;1.73;55.75
42847;BME280;28495;49.916;14.536;2023-03-03T00:50:47;97084.72;;;1.75;55.85
42847;BME280;28495;49.916;14.536;2023-03-03T00:56:08;97089.28;;;1.70;55.66
42847;BME280;28495;49.916;14.536;2023-03-03T01:01:29;97080.19;;;1.63;55.49
42847;BME280;28495;49.916;14.536;2023-03-03T01:06:49;97081.28;;;1.59;55.94
42847;BME280;28495;49.916;14.536;2023-03-03T01:12:10;97077.41;;;1.67;56.20
42847;BME280;28495;49.916;14.536;2023-03-03T01:17:32;97068.88;;;1.67;55.87
42847;BME280;28495;49.916;14.536;2023-03-03T01:22:53;97069.69;;;1.67;56.00
42847;BME280;28495;49.916;14.536;2023-03-03T01:28:14;97067.59;;;1.58;55.82
42847;BME280;28495;49.916;14.536;2023-03-03T01:33:35;97059.25;;;1.53;55.74
42847;BME280;28495;49.916;14.536;2023-03-03T01:38:56;97062.59;;;1.55;56.33
42847;BME280;28495;49.916;14.536;2023-03-03T01:44:17;97049.97;;;1.50;55.99
42847;BME280;28495;49.916;14.536;2023-03-03T01:50:01;97047.78;;;1.60;56.23
42847;BME280;28495;49.916;14.536;2023-03-03T01:55:29;97049.69;;;1.57;56.14
42847;BME280;28495;49.916;14.536;2023-03-03T02:00:54;97048.69;;;1.42;55.82
42847;BME280;28495;49.916;14.536;2023-03-03T02:06:20;97059.44;;;1.50;56.46
42847;BME280;28495;49.916;14.536;2023-03-03T02:11:43;97047.50;;;1.49;56.43
42847;BME280;28495;49.916;14.536;2023-03-03T02:17:05;97050.59;;;1.56;55.88
42847;BME280;28495;49.916;14.536;2023-03-03T02:22:34;97049.88;;;1.70;56.13
42847;BME280;28495;49.916;14.536;2023-03-03T02:28:00;97046.25;;;1.56;55.75
42847;BME280;28495;49.916;14.536;2023-03-03T02:33:22;97055.66;;;1.40;56.14
42847;BME280;28495;49.916;14.536;2023-03-03T02:38:54;97038.41;;;1.24;55.87
42847;BME280;28495;49.916;14.536;2023-03-03T02:44:24;97035.31;;;1.35;56.64
42847;BME280;28495;49.916;14.536;2023-03-03T02:49:46;97039.84;;;1.47;56.32
42847;BME280;28495;49.916;14.536;2023-03-03T02:55:07;97047.19;;;1.37;56.16
42847;BME280;28495;49.916;14.536;2023-03-03T03:00:28;97044.56;;;1.39;56.33
42847;BME280;28495;49.916;14.536;2023-03-03T03:05:48;97039.19;;;1.26;56.20
42847;BME280;28495;49.916;14.536;2023-03-03T03:11:12;97048.25;;;1.16;56.34
42847;BME280;28495;49.916;14.536;2023-03-03T03:16:34;97051.63;;;0.99;56.50
42847;BME280;28495;49.916;14.536;2023-03-03T03:21:55;97051.25;;;0.89;56.41
42847;BME280;28495;49.916;14.536;2023-03-03T03:27:16;97053.81;;;0.89;56.69
42847;BME280;28495;49.916;14.536;2023-03-03T03:32:40;97052.91;;;0.90;56.76
42847;BME280;28495;49.916;14.536;2023-03-03T03:38:02;97054.31;;;0.78;56.71
42847;BME280;28495;49.916;14.536;2023-03-03T03:43:24;97056.97;;;0.57;56.42
42847;BME280;28495;49.916;14.536;2023-03-03T03:48:46;97048.69;;;0.70;57.14
42847;BME280;28495;49.916;14.536;2023-03-03T03:54:10;97046.78;;;0.93;57.07
42847;BME280;28495;49.916;14.536;2023-03-03T03:59:32;97045.88;;;0.94;56.79
42847;BME280;28495;49.916;14.536;2023-03-03T04:04:53;97047.47;;;0.96;56.98
42847;BME280;28495;49.916;14.536;2023-03-03T04:10:14;97038.25;;;0.92;56.93
42847;BME280;28495;49.916;14.536;2023-03-03T04:15:34;97033.09;;;0.92;56.97
42847;BME280;28495;49.916;14.536;2023-03-03T04:20:56;97029.25;;;0.83;56.64
42847;BME280;28495;49.916;14.536;2023-03-03T04:26:18;97032.69;;;0.65;57.01
42847;BME280;28495;49.916;14.536;2023-03-03T04:31:41;97036.75;;;0.51;57.06
42847;BME280;28495;49.916;14.536;2023-03-03T04:37:04;97051.59;;;0.44;56.70
42847;BME280;28495;49.916;14.536;2023-03-03T04:42:25;97052.69;;;0.39;56.84
42847;BME280;28495;49.916;14.536;2023-03-03T04:47:47;97054.56;;;0.35;56.84
42847;BME280;28495;49.916;14.536;2023-03-03T04:53:09;97056.38;;;0.33;57.17
42847;BME280;28495;49.916;14.536;2023-03-03T04:58:31;97053.41;;;0.42;57.33
42847;BME280;28495;49.916;14.536;2023-03-03T05:03:52;97048.06;;;0.47;57.56
42847;BME280;28495;49.916;14.536;2023-03-03T05:09:13;97056.72;;;0.44;57.53
42847;BME280;28495;49.916;14.536;2023-03-03T05:14:33;97061.16;;;0.41;57.28
42847;BME280;28495;49.916;14.536;2023-03-03T05:19:54;97061.84;;;0.25;57.30
42847;BME280;28495;49.916;14.536;2023-03-03T05:25:16;97059.91;;;0.11;57.11
42847;BME280;28495;49.916;14.536;2023-03-03T05:30:37;97074.88;;;0.21;57.93
42847;BME280;28495;49.916;14.536;2023-03-03T05:35:59;97069.53;;;0.25;57.61
42847;BME280;28495;49.916;14.536;2023-03-03T05:41:19;97075.66;;;0.23;57.33
42847;BME280;28495;49.916;14.536;2023-03-03T05:46:40;97074.06;;;0.20;57.53
42847;BME280;28495;49.916;14.536;2023-03-03T05:52:02;97091.66;;;0.28;57.87
42847;BME280;28495;49.916;14.536;2023-03-03T05:57:23;97106.91;;;0.31;57.77
42847;BME280;28495;49.916;14.536;2023-03-03T06:02:44;97118.66;;;0.37;57.84
42847;BME280;28495;49.916;14.536;2023-03-03T06:08:05;97111.69;;;0.39;57.81
42847;BME280;28495;49.916;14.536;2023-03-03T06:13:26;97116.78;;;0.40;57.82
42847;BME280;28495;49.916;14.536;2023-03-03T06:18:47;97121.22;;;0.37;57.65
42847;BME280;28495;49.916;14.536;2023-03-03T06:24:08;97121.47;;;0.30;57.90
42847;BME280;28495;49.916;14.536;2023-03-03T06:29:29;97131.06;;;0.27;58.14
42847;BME280;28495;49.916;14.536;2023-03-03T06:34:50;97141.09;;;0.32;58.23
42847;BME280;28495;49.916;14.536;2023-03-03T06:40:11;97155.31;;;0.39;58.29
42847;BME280;28495;49.916;14.536;2023-03-03T06:45:32;97165.53;;;0.40;58.35
42847;BME280;28495;49.916;14.536;2023-03-03T06:50:52;97171.22;;;0.47;58.56
42847;BME280;28495;49.916;14.536;2023-03-03T06:56:13;97178.56;;;0.36;58.47
42847;BME280;28495;49.916;14.536;2023-03-03T07:01:37;97176.41;;;1.03;59.70
42847;BME280;28495;49.916;14.536;2023-03-03T07:07:15;97182.06;;;0.73;59.03
42847;BME280;28495;49.916;14.536;2023-03-03T07:12:36;97188.72;;;0.58;59.10
42847;BME280;28495;49.916;14.536;2023-03-03T07:17:57;97193.41;;;0.48;59.52
42847;BME280;28495;49.916;14.536;2023-03-03T07:23:36;97195.47;;;0.40;59.53
42847;BME280;28495;49.916;14.536;2023-03-03T07:29:28;97201.25;;;0.64;62.72
42847;BME280;28495;49.916;14.536;2023-03-03T07:34:53;97188.50;;;1.92;60.32
42847;BME280;28495;49.916;14.536;2023-03-03T07:51:37;97206.75;;;1.14;60.46
42847;BME280;28495;49.916;14.536;2023-03-03T08:02:39;97213.63;;;0.75;60.48
42847;BME280;28495;49.916;14.536;2023-03-03T08:08:33;97199.91;;;0.76;61.23
42847;BME280;28495;49.916;14.536;2023-03-03T08:13:56;97206.22;;;0.88;61.06
42847;BME280;28495;49.916;14.536;2023-03-03T08:19:17;97212.47;;;1.01;61.48
42847;BME280;28495;49.916;14.536;2023-03-03T08:24:38;97211.81;;;0.96;61.49
42847;BME280;28495;49.916;14.536;2023-03-03T08:29:58;97216.97;;;0.96;61.77
42847;BME280;28495;49.916;14.536;2023-03-03T08:35:19;97216.91;;;0.98;62.01
42847;BME280;28495;49.916;14.536;2023-03-03T08:40:40;97226.00;;;1.05;62.09
42847;BME280;28495;49.916;14.536;2023-03-03T08:46:04;97218.91;;;0.91;62.45
42847;BME280;28495;49.916;14.536;2023-03-03T08:51:26;97232.03;;;0.85;62.42
42847;BME280;28495;49.916;14.536;2023-03-03T08:56:47;97243.69;;;0.92;62.36
42847;BME280;28495;49.916;14.536;2023-03-03T09:02:07;97235.44;;;1.04;62.60
42847;BME280;28495;49.916;14.536;2023-03-03T09:07:29;97236.75;;;1.13;62.95
42847;BME280;28495;49.916;14.536;2023-03-03T09:12:50;97239.72;;;1.23;62.67
42847;BME280;28495;49.916;14.536;2023-03-03T09:23:37;97234.13;;;0.96;63.18
42847;BME280;28495;49.916;14.536;2023-03-03T09:34:40;97245.38;;;1.12;63.54
42847;BME280;28495;49.916;14.536;2023-03-03T09:40:25;97225.75;;;1.29;63.58
42847;BME280;28495;49.916;14.536;2023-03-03T09:58:01;97235.47;;;1.78;63.21
42847;BME280;28495;49.916;14.536;2023-03-03T10:03:14;97237.28;;;1.76;62.77
42847;BME280;28495;49.916;14.536;2023-03-03T10:26:20;97250.63;;;2.37;63.93
42847;BME280;28495;49.916;14.536;2023-03-03T10:37:23;97241.44;;;2.82;62.90
42847;BME280;28495;49.916;14.536;2023-03-03T11:05:44;97233.31;;;3.54;63.36
42847;BME280;28495;49.916;14.536;2023-03-03T11:17:11;97238.63;;;3.67;63.20
42847;BME280;28495;49.916;14.536;2023-03-03T11:22:47;97234.53;;;3.79;63.07
42847;BME280;28495;49.916;14.536;2023-03-03T11:33:50;97210.59;;;3.91;62.54
42847;BME280;28495;49.916;14.536;2023-03-03T11:39:19;97214.38;;;3.86;62.10
42847;BME280;28495;49.916;14.536;2023-03-03T11:44:45;97212.72;;;3.85;62.32
42847;BME280;28495;49.916;14.536;2023-03-03T11:55:38;97200.16;;;4.23;62.84
42847;BME280;28495;49.916;14.536;2023-03-03T12:01:16;97208.38;;;4.30;61.97
42847;BME280;28495;49.916;14.536;2023-03-03T12:13:02;97184.13;;;4.62;61.88
42847;BME280;28495;49.916;14.536;2023-03-03T12:24:23;97178.13;;;4.76;61.22
42847;BME280;28495;49.916;14.536;2023-03-03T12:35:51;97184.75;;;4.94;60.39
42847;BME280;28495;49.916;14.536;2023-03-03T12:46:59;97173.66;;;5.07;59.61
42847;BME280;28495;49.916;14.536;2023-03-03T13:09:34;97161.22;;;5.54;59.88
42847;BME280;28495;49.916;14.536;2023-03-03T13:15:11;97153.31;;;5.42;59.60
42847;BME280;28495;49.916;14.536;2023-03-03T13:26:46;97153.72;;;6.04;59.96
42847;BME280;28495;49.916;14.536;2023-03-03T13:32:21;97145.16;;;5.89;59.08
42847;BME280;28495;49.916;14.536;2023-03-03T13:37:48;97134.16;;;5.59;59.42
42847;BME280;28495;49.916;14.536;2023-03-03T13:54:15;97138.28;;;5.34;58.18
42847;BME280;28495;49.916;14.536;2023-03-03T14:05:44;97131.16;;;5.38;57.98
42847;BME280;28495;49.916;14.536;2023-03-03T14:11:20;97128.19;;;5.44;58.03
42847;BME280;28495;49.916;14.536;2023-03-03T14:16:52;97121.56;;;5.40;57.20
42847;BME280;28495;49.916;14.536;2023-03-03T14:28:12;97120.25;;;5.20;57.14
42847;BME280;28495;49.916;14.536;2023-03-03T14:33:35;97124.69;;;5.18;58.14
42847;BME280;28495;49.916;14.536;2023-03-03T14:38:56;97126.91;;;5.24;57.50
42847;BME280;28495;49.916;14.536;2023-03-03T14:44:31;97125.81;;;5.14;57.27
42847;BME280;28495;49.916;14.536;2023-03-03T14:49:57;97129.38;;;4.98;56.57
42847;BME280;28495;49.916;14.536;2023-03-03T14:55:32;97130.09;;;5.00;56.62
42847;BME280;28495;49.916;14.536;2023-03-03T15:06:46;97131.50;;;4.92;56.22
42847;BME280;28495;49.916;14.536;2023-03-03T15:12:23;97122.78;;;4.80;56.14
42847;BME280;28495;49.916;14.536;2023-03-03T15:18:00;97127.13;;;4.65;56.59
42847;BME280;28495;49.916;14.536;2023-03-03T15:23:47;97128.78;;;4.51;56.28
42847;BME280;28495;49.916;14.536;2023-03-03T15:29:16;97129.09;;;4.47;56.58
42847;BME280;28495;49.916;14.536;2023-03-03T15:40:50;97127.59;;;4.28;56.91
42847;BME280;28495;49.916;14.536;2023-03-03T15:46:27;97121.69;;;4.26;56.71
42847;BME280;28495;49.916;14.536;2023-03-03T15:52:07;97126.69;;;4.29;56.90
42847;BME280;28495;49.916;14.536;2023-03-03T16:04:05;97115.78;;;4.09;56.96
42847;BME280;28495;49.916;14.536;2023-03-03T16:09:46;97125.00;;;3.99;56.93
42847;BME280;28495;49.916;14.536;2023-03-03T16:26:44;97133.63;;;3.84;57.44
42847;BME280;28495;49.916;14.536;2023-03-03T16:32:14;97136.16;;;3.85;57.08
42847;BME280;28495;49.916;14.536;2023-03-03T16:38:01;97137.78;;;3.86;56.96
42847;BME280;28495;49.916;14.536;2023-03-03T16:54:55;97157.31;;;3.76;57.36
42847;BME280;28495;49.916;14.536;2023-03-03T17:00:26;97162.75;;;3.86;57.06
42847;BME280;28495;49.916;14.536;2023-03-03T17:05:54;97159.59;;;3.80;57.57
42847;BME280;28495;49.916;14.536;2023-03-03T17:11:29;97170.91;;;3.63;57.07
42847;BME280;28495;49.916;14.536;2023-03-03T17:16:58;97184.56;;;3.49;57.47
42847;BME280;28495;49.916;14.536;2023-03-03T17:22:40;97181.69;;;3.24;56.88
42847;BME280;28495;49.916;14.536;2023-03-03T17:39:47;97191.34;;;3.04;58.43
42847;BME280;28495;49.916;14.536;2023-03-03T17:45:13;97191.16;;;3.07;58.28
42847;BME280;28495;49.916;14.536;2023-03-03T17:50:55;97190.16;;;2.94;58.05
42847;BME280;28495;49.916;14.536;2023-03-03T17:56:32;97183.09;;;2.97;59.00
42847;BME280;28495;49.916;14.536;2023-03-03T18:19:46;97194.22;;;2.66;58.07
42847;BME280;28495;49.916;14.536;2023-03-03T18:25:15;97189.66;;;2.37;58.29
42847;BME280;28495;49.916;14.536;2023-03-03T18:36:33;97201.69;;;2.37;57.98
42847;BME280;28495;49.916;14.536;2023-03-03T18:42:09;97207.16;;;2.31;58.72
42847;BME280;28495;49.916;14.536;2023-03-03T18:53:29;97208.38;;;2.23;58.57
42847;BME280;28495;49.916;14.536;2023-03-03T18:58:50;97206.44;;;2.11;58.72
42847;BME280;28495;49.916;14.536;2023-03-03T19:09:51;97205.19;;;1.83;59.26
42847;BME280;28495;49.916;14.536;2023-03-03T19:21:24;97203.72;;;1.79;59.16
42847;BME280;28495;49.916;14.536;2023-03-03T19:27:05;97200.59;;;1.55;59.10
42847;BME280;28495;49.916;14.536;2023-03-03T19:32:44;97212.75;;;1.51;59.46
42847;BME280;28495;49.916;14.536;2023-03-03T19:50:06;97222.09;;;1.34;59.84
42847;BME280;28495;49.916;14.536;2023-03-03T19:55:32;97222.91;;;1.35;59.78
42847;BME280;28495;49.916;14.536;2023-03-03T20:06:39;97237.22;;;1.21;59.54
42847;BME280;28495;49.916;14.536;2023-03-03T20:23:22;97238.19;;;1.00;59.62
42847;BME280;28495;49.916;14.536;2023-03-03T20:29:19;97243.53;;;1.14;60.16
42847;BME280;28495;49.916;14.536;2023-03-03T20:34:58;97223.91;;;1.32;59.94
42847;BME280;28495;49.916;14.536;2023-03-03T20:46:02;97231.09;;;1.43;59.99
42847;BME280;28495;49.916;14.536;2023-03-03T20:52:10;97229.59;;;1.39;59.72
42847;BME280;28495;49.916;14.536;2023-03-03T20:57:33;97229.75;;;1.17;59.66
42847;BME280;28495;49.916;14.536;2023-03-03T21:14:30;97232.19;;;1.20;60.08
42847;BME280;28495;49.916;14.536;2023-03-03T21:19:53;97223.34;;;1.26;59.62
42847;BME280;28495;49.916;14.536;2023-03-03T21:31:13;97229.25;;;1.09;59.86
42847;BME280;28495;49.916;14.536;2023-03-03T21:47:29;97214.03;;;1.23;59.87
42847;BME280;28495;49.916;14.536;2023-03-03T21:52:50;97214.94;;;1.03;59.88
42847;BME280;28495;49.916;14.536;2023-03-03T21:58:11;97207.78;;;1.10;60.34
42847;BME280;28495;49.916;14.536;2023-03-03T22:03:32;97207.59;;;0.95;60.06
42847;BME280;28495;49.916;14.536;2023-03-03T22:08:53;97207.13;;;0.87;59.98
42847;BME280;28495;49.916;14.536;2023-03-03T22:14:14;97204.47;;;0.88;60.44
42847;BME280;28495;49.916;14.536;2023-03-03T22:19:35;97202.66;;;0.90;60.73
42847;BME280;28495;49.916;14.536;2023-03-03T22:24:57;97200.53;;;0.81;60.82
42847;BME280;28495;49.916;14.536;2023-03-03T22:30:18;97198.16;;;0.76;60.60
42847;BME280;28495;49.916;14.536;2023-03-03T22:35:39;97194.28;;;0.87;60.45
42847;BME280;28495;49.916;14.536;2023-03-03T22:41:00;97194.34;;;0.85;60.21
42847;BME280;28495;49.916;14.536;2023-03-03T22:46:21;97202.09;;;0.65;60.04
42847;BME280;28495;49.916;14.536;2023-03-03T22:51:42;97195.97;;;0.48;60.23
42847;BME280;28495;49.916;14.536;2023-03-03T22:57:03;97181.06;;;0.56;60.90
42847;BME280;28495;49.916;14.536;2023-03-03T23:02:24;97176.78;;;0.76;60.28
42847;BME280;28495;49.916;14.536;2023-03-03T23:07:45;97173.16;;;0.61;60.27
42847;BME280;28495;49.916;14.536;2023-03-03T23:13:07;97170.06;;;0.73;60.18
42847;BME280;28495;49.916;14.536;2023-03-03T23:18:28;97163.72;;;0.81;60.72
42847;BME280;28495;49.916;14.536;2023-03-03T23:23:49;97164.97;;;0.72;60.25
42847;BME280;28495;49.916;14.536;2023-03-03T23:29:09;97165.06;;;0.70;59.91
42847;BME280;28495;49.916;14.536;2023-03-03T23:34:30;97167.91;;;0.64;60.13
42847;BME280;28495;49.916;14.536;2023-03-03T23:39:51;97157.06;;;0.76;60.14
42847;BME280;28495;49.916;14.536;2023-03-03T23:45:12;97161.84;;;0.65;60.31
42847;BME280;28495;49.916;14.536;2023-03-03T23:50:33;97156.34;;;0.74;60.55
42847;BME280;28495;49.916;14.536;2023-03-03T23:55:57;97159.38;;;0.44;59.54
